createdAt,value
2023-01-03T00:01:50.771Z,100447.94
2023-01-03T00:04:18.692Z,100441.72
2023-01-03T00:06:49.372Z,100440.13
2023-01-03T00:09:20.241Z,100432.94
2023-01-03T00:12:09.026Z,100425.72
2023-01-03T00:14:39.307Z,100437.25
2023-01-03T00:17:07.635Z,100438.34
2023-01-03T00:19:38.888Z,100438.88
2023-01-03T00:22:06.520Z,100463.84
2023-01-03T00:24:33.869Z,100460.25
2023-01-03T00:27:01.205Z,100461.06
2023-01-03T00:29:28.543Z,100460.91
2023-01-03T00:31:55.684Z,100460.22
2023-01-03T00:34:23.007Z,100465.41
2023-01-03T00:36:50.395Z,100468.91
2023-01-03T00:39:17.669Z,100464.69
2023-01-03T00:41:44.777Z,100482.31
2023-01-03T00:44:11.952Z,100492.91
2023-01-03T00:46:39.156Z,100482.28
2023-01-03T00:49:06.780Z,100477.91
2023-01-03T00:51:36.691Z,100487.44
2023-01-03T00:54:05.806Z,100498.34
2023-01-03T00:56:37.322Z,100491.25
2023-01-03T00:59:06.135Z,100497.53
2023-01-03T01:01:47.063Z,100493.75
2023-01-03T01:04:18.259Z,100496.44
2023-01-03T01:06:52.967Z,100500.81
2023-01-03T01:09:24.964Z,100508.66
2023-01-03T01:11:53.405Z,100498.34
2023-01-03T01:14:25.450Z,100501.53
2023-01-03T01:17:00.112Z,100503.53
2023-01-03T01:19:32.173Z,100514.94
2023-01-03T01:21:59.626Z,100508.00
2023-01-03T01:24:27.561Z,100507.25
2023-01-03T01:26:54.592Z,100512.81
2023-01-03T01:29:21.947Z,100502.97
2023-01-03T01:31:49.758Z,100513.53
2023-01-03T01:34:17.264Z,100522.44
2023-01-03T01:36:45.812Z,100531.31
2023-01-03T01:39:20.190Z,100533.09
2023-01-03T01:42:09.173Z,100543.63
2023-01-03T01:45:04.999Z,100545.41
2023-01-03T01:47:52.161Z,100540.19
2023-01-03T01:50:26.266Z,100537.47
2023-01-03T01:53:15.816Z,100531.41
2023-01-03T01:55:54.266Z,100521.59
2023-01-03T01:58:26.144Z,100536.69
2023-01-03T02:00:53.568Z,100536.47
2023-01-03T02:03:20.656Z,100547.94
2023-01-03T02:05:53.193Z,100553.41
2023-01-03T02:08:20.910Z,100558.06
2023-01-03T02:11:20.274Z,100560.75
2023-01-03T02:13:58.765Z,100555.34
2023-01-03T02:16:57.601Z,100554.78
2023-01-03T02:19:37.814Z,100575.00
2023-01-03T02:22:14.906Z,100573.06
2023-01-03T02:25:19.467Z,100577.63
2023-01-03T02:28:05.037Z,100570.53
2023-01-03T02:30:54.497Z,100574.81
2023-01-03T02:33:32.628Z,100573.16
2023-01-03T02:36:35.830Z,100578.50
2023-01-03T02:39:05.660Z,100579.31
2023-01-03T02:42:16.185Z,100590.03
2023-01-03T02:45:11.609Z,100577.50
2023-01-03T02:47:51.485Z,100581.41
2023-01-03T02:50:23.867Z,100589.34
2023-01-03T02:52:57.107Z,100578.75
2023-01-03T02:55:28.970Z,100584.88
2023-01-03T02:58:09.841Z,100585.03
2023-01-03T03:00:45.007Z,100587.69
2023-01-03T03:03:18.607Z,100590.81
2023-01-03T03:06:10.360Z,100608.38
2023-01-03T03:08:37.713Z,100602.13
2023-01-03T03:11:23.553Z,100610.31
2023-01-03T03:14:07.335Z,100614.78
2023-01-03T03:16:48.831Z,100624.50
2023-01-03T03:19:50.484Z,100615.94
2023-01-03T03:22:47.305Z,100626.34
2023-01-03T03:25:41.714Z,100627.09
2023-01-03T03:28:34.325Z,100623.59
2023-01-03T03:31:56.783Z,100634.72
2023-01-03T03:34:32.728Z,100644.56
2023-01-03T03:37:16.858Z,100649.78
2023-01-03T03:40:05.483Z,100654.16
2023-01-03T03:43:04.935Z,100652.44
2023-01-03T03:46:14.931Z,100654.94
2023-01-03T03:49:21.450Z,100660.03
2023-01-03T03:51:49.997Z,100660.06
2023-01-03T03:54:22.480Z,100663.19
2023-01-03T03:57:00.128Z,100659.91
2023-01-03T03:59:29.661Z,100675.75
2023-01-03T04:02:01.356Z,100684.44
2023-01-03T04:04:36.798Z,100687.09
2023-01-03T04:07:04.846Z,100696.50
2023-01-03T04:09:32.064Z,100697.22
2023-01-03T04:11:59.145Z,100703.50
2023-01-03T04:14:26.253Z,100714.84
2023-01-03T04:16:53.391Z,100709.13
2023-01-03T04:19:20.418Z,100713.78
2023-01-03T04:21:47.589Z,100712.66
2023-01-03T04:24:14.625Z,100714.19
2023-01-03T04:26:41.690Z,100721.38
2023-01-03T04:29:17.981Z,100720.50
2023-01-03T04:31:45.107Z,100725.94
2023-01-03T04:34:12.236Z,100733.28
2023-01-03T04:36:39.353Z,100733.53
2023-01-03T04:39:06.482Z,100745.16
2023-01-03T04:41:33.622Z,100742.13
2023-01-03T04:44:04.532Z,100748.09
2023-01-03T04:46:36.605Z,100751.72
2023-01-03T04:49:06.520Z,100758.53
2023-01-03T04:51:34.228Z,100760.97
2023-01-03T04:54:02.472Z,100762.72
2023-01-03T04:56:35.947Z,100770.88
2023-01-03T04:59:04.126Z,100772.66
2023-01-03T05:01:31.537Z,100767.75
2023-01-03T05:04:01.029Z,100774.84
2023-01-03T05:06:28.706Z,100781.94
2023-01-03T05:08:56.191Z,100788.31
2023-01-03T05:11:23.794Z,100778.63
2023-01-03T05:13:50.915Z,100791.94
2023-01-03T05:16:18.302Z,100784.69
2023-01-03T05:18:46.079Z,100786.41
2023-01-03T05:21:36.604Z,100785.25
2023-01-03T05:24:23.111Z,100780.16
2023-01-03T05:26:51.240Z,100785.00
2023-01-03T05:29:21.915Z,100791.34
2023-01-03T05:31:49.868Z,100787.16
2023-01-03T05:34:17.178Z,100793.47
2023-01-03T05:36:44.270Z,100794.13
2023-01-03T05:39:11.557Z,100793.44
2023-01-03T05:41:57.460Z,100810.88
2023-01-03T05:44:24.808Z,100801.91
2023-01-03T05:46:51.921Z,100808.25
2023-01-03T05:49:19.046Z,100816.03
2023-01-03T05:51:46.168Z,100810.94
2023-01-03T05:54:16.214Z,100827.75
2023-01-03T05:56:43.649Z,100812.81
2023-01-03T05:59:11.261Z,100823.16
2023-01-03T06:01:39.178Z,100828.53
2023-01-03T06:04:07.338Z,100819.91
2023-01-03T06:06:34.827Z,100826.50
2023-01-03T06:09:01.901Z,100839.69
2023-01-03T06:11:28.975Z,100840.28
2023-01-03T06:13:56.149Z,100848.00
2023-01-03T06:16:45.857Z,100851.47
2023-01-03T06:19:12.967Z,100852.50
2023-01-03T06:21:41.627Z,100849.59
2023-01-03T06:24:09.917Z,100852.38
2023-01-03T06:26:37.565Z,100856.00
2023-01-03T06:29:06.687Z,100856.63
2023-01-03T06:31:34.105Z,100865.44
2023-01-03T06:34:01.435Z,100867.06
2023-01-03T06:36:28.637Z,100847.75
2023-01-03T06:38:55.738Z,100842.66
2023-01-03T06:41:22.722Z,100856.94
2023-01-03T06:43:49.779Z,100850.44
2023-01-03T06:46:35.965Z,100872.16
2023-01-03T06:49:21.615Z,100890.03
2023-01-03T06:52:08.900Z,100892.69
2023-01-03T06:54:39.286Z,100899.72
2023-01-03T06:57:06.323Z,100899.38
2023-01-03T06:59:33.459Z,100914.38
2023-01-03T07:02:00.722Z,100911.69
2023-01-03T07:04:28.171Z,100916.81
2023-01-03T07:06:55.558Z,100916.25
2023-01-03T07:09:22.868Z,100911.88
2023-01-03T07:11:50.659Z,100924.38
2023-01-03T07:14:19.052Z,100919.25
2023-01-03T07:16:48.577Z,100917.44
2023-01-03T07:19:19.830Z,100923.06
2023-01-03T07:21:47.192Z,100937.78
2023-01-03T07:24:18.710Z,100929.38
2023-01-03T07:26:45.920Z,100930.28
2023-01-03T07:29:12.975Z,100938.34
2023-01-03T07:31:41.729Z,100945.47
2023-01-03T19:48:00.813Z,101387.69
2023-01-03T19:50:36.813Z,101388.13
2023-01-03T19:53:03.986Z,101387.88
2023-01-03T19:55:35.481Z,101382.47
2023-01-03T19:58:10.349Z,101387.66
2023-01-03T20:00:37.432Z,101390.88
2023-01-03T20:03:13.005Z,101391.28
2023-01-03T20:05:40.257Z,101404.31
2023-01-03T20:08:12.477Z,101397.06
2023-01-03T20:10:42.097Z,101390.41
2023-01-03T20:13:23.267Z,101395.84
2023-01-03T20:15:54.284Z,101401.53
2023-01-03T20:18:21.266Z,101405.66
2023-01-03T20:20:48.945Z,101401.09
2023-01-03T20:23:18.093Z,101399.38
2023-01-03T20:25:45.536Z,101399.00
2023-01-03T20:28:29.419Z,101401.53
2023-01-03T20:31:00.869Z,101402.75
2023-01-03T20:33:28.861Z,101399.19
2023-01-03T20:36:14.405Z,101393.84
2023-01-03T20:38:50.246Z,101403.44
2023-01-03T20:41:18.888Z,101413.63
2023-01-03T20:43:50.494Z,101401.06
2023-01-03T20:46:22.524Z,101399.22
2023-01-03T20:48:59.694Z,101401.56
2023-01-03T20:51:27.011Z,101407.00
2023-01-03T20:53:55.439Z,101405.06
2023-01-03T20:56:25.730Z,101414.78
2023-01-03T20:58:52.829Z,101418.84
2023-01-03T21:01:20.021Z,101410.66
2023-01-03T21:03:47.279Z,101419.53
2023-01-03T21:06:29.602Z,101415.13
2023-01-03T21:08:57.964Z,101412.56
2023-01-03T21:11:35.961Z,101419.81
2023-01-03T21:14:03.872Z,101405.88
2023-01-03T21:16:43.165Z,101414.47
2023-01-03T21:19:23.361Z,101414.69
2023-01-03T21:21:55.418Z,101422.78
2023-01-03T21:24:24.322Z,101425.28
2023-01-03T21:26:51.792Z,101425.78
2023-01-03T21:29:19.022Z,101427.03
2023-01-03T21:31:46.333Z,101429.44
2023-01-03T21:34:19.988Z,101420.44
2023-01-03T21:36:47.675Z,101428.13
2023-01-03T21:39:14.867Z,101428.34
2023-01-03T21:42:00.727Z,101425.50
2023-01-03T21:44:27.939Z,101419.22
2023-01-03T21:46:55.067Z,101426.81
2023-01-03T21:49:22.199Z,101424.69
2023-01-03T21:51:49.272Z,101426.41
2023-01-03T21:54:16.360Z,101417.81
2023-01-03T21:56:47.021Z,101433.59
2023-01-03T21:59:17.486Z,101438.22
2023-01-03T22:02:05.027Z,101437.22
2023-01-03T22:04:33.326Z,101438.63
2023-01-03T22:07:01.095Z,101434.47
2023-01-03T22:09:49.056Z,101436.72
2023-01-03T22:12:17.536Z,101440.16
2023-01-03T22:14:47.827Z,101434.69
2023-01-03T22:17:15.864Z,101436.19
2023-01-03T22:19:43.062Z,101436.41
2023-01-03T22:22:10.179Z,101433.69
2023-01-03T22:24:37.221Z,101439.44
2023-01-03T22:27:04.291Z,101436.72
2023-01-03T22:29:31.351Z,101436.50
2023-01-03T22:31:58.453Z,101431.88
2023-01-03T22:34:25.540Z,101435.22
2023-01-03T22:36:52.722Z,101436.19
2023-01-03T22:39:19.709Z,101444.69
2023-01-03T22:41:46.694Z,101440.34
2023-01-03T22:44:13.704Z,101437.84
2023-01-03T22:46:40.804Z,101444.50
2023-01-03T22:49:07.855Z,101449.53
2023-01-03T22:51:34.866Z,101446.91
2023-01-03T22:54:01.879Z,101442.06
2023-01-03T22:56:28.970Z,101440.75
2023-01-03T22:58:56.002Z,101447.91
2023-01-03T23:01:28.021Z,101449.53
2023-01-03T23:04:00.677Z,101454.09
2023-01-03T23:06:32.893Z,101444.78
2023-01-03T23:09:01.296Z,101450.53
2023-01-03T23:11:50.596Z,101453.78
2023-01-03T23:14:20.702Z,101453.78
2023-01-03T23:16:50.851Z,101448.63
2023-01-03T23:19:22.047Z,101447.09
2023-01-03T23:21:49.388Z,101456.09
2023-01-03T23:24:21.208Z,101454.78
2023-01-03T23:26:49.907Z,101451.88
2023-01-03T23:29:17.445Z,101454.28
2023-01-03T23:31:45.316Z,101448.00
2023-01-03T23:34:13.350Z,101445.28
2023-01-03T23:36:43.364Z,101448.22
2023-01-03T23:39:17.409Z,101447.50
2023-01-03T23:41:45.672Z,101451.94
2023-01-03T23:44:13.199Z,101461.03
2023-01-03T23:46:41.405Z,101461.34
2023-01-03T23:49:12.486Z,101458.50
2023-01-03T23:51:39.633Z,101454.69
2023-01-03T23:54:06.803Z,101453.97
2023-01-03T23:56:33.903Z,101450.34
2023-01-03T23:59:00.965Z,101451.94
